Time;durP1;ratioP1;P1;durP2;ratioP2;P2;SDS_P1;SDS_P2;PMS_P1;PMS_P2;Temp;Humidity;BMP_temperature;BMP_pressure;BME280_temperature;BME280_humidity;BME280_pressure;Samples;Min_cycle;Max_cycle;Signal;HPM_P1;HPM_P2
2023/03/22 00:00:49;;;;;;;45.40;24.30;;;;;;;-128.00;-1.00;-1.00;18483;303;7504649;-31
2023/03/22 00:03:15;;;;;;;46.60;23.70;;;;;;;-128.00;-1.00;-1.00;18473;304;7504365;-31
2023/03/22 00:05:41;;;;;;;52.60;26.80;;;;;;;-128.00;-1.00;-1.00;18497;295;7504692;-31
2023/03/22 00:08:07;;;;;;;55.80;24.90;;;;;;;-128.00;-1.00;-1.00;18492;295;7505157;-31
2023/03/22 00:10:33;;;;;;;53.60;22.90;;;;;;;-128.00;-1.00;-1.00;18527;295;7506053;-31
2023/03/22 00:12:59;;;;;;;57.10;26.90;;;;;;;-128.00;-1.00;-1.00;18510;319;7504651;-34
2023/03/22 00:15:25;;;;;;;60.20;28.40;;;;;;;-128.00;-1.00;-1.00;18462;297;7505778;-35
2023/03/22 00:17:51;;;;;;;55.40;26.20;;;;;;;-128.00;-1.00;-1.00;18476;295;7506192;-31
2023/03/22 00:20:18;;;;;;;50.10;22.90;;;;;;;-128.00;-1.00;-1.00;18504;347;7504813;-31
2023/03/22 00:22:44;;;;;;;43.10;22.10;;;;;;;-128.00;-1.00;-1.00;18517;295;7504305;-34
2023/03/22 00:25:10;;;;;;;44.60;22.00;;;;;;;-128.00;-1.00;-1.00;18469;288;7505608;-34
2023/03/22 00:27:36;;;;;;;51.50;23.90;;;;;;;-128.00;-1.00;-1.00;18471;295;7504389;-31
2023/03/22 00:30:03;;;;;;;56.90;28.10;;;;;;;-128.00;-1.00;-1.00;18867;287;7505013;-34
2023/03/22 00:32:29;;;;;;;45.60;24.20;;;;;;;-128.00;-1.00;-1.00;18460;295;7504623;-30
2023/03/22 00:34:55;;;;;;;44.20;21.80;;;;;;;-128.00;-1.00;-1.00;18879;287;7504254;-31
2023/03/22 00:37:21;;;;;;;40.20;21.80;;;;;;;-128.00;-1.00;-1.00;18902;336;7504746;-34
2023/03/22 00:39:47;;;;;;;40.40;20.10;;;;;;;-128.00;-1.00;-1.00;18883;295;7504235;-34
2023/03/22 00:42:14;;;;;;;40.80;20.90;;;;;;;-128.00;-1.00;-1.00;18910;347;7504699;-31
2023/03/22 00:44:40;;;;;;;60.40;29.90;;;;;;;-128.00;-1.00;-1.00;18488;287;7506411;-33
2023/03/22 00:47:05;;;;;;;44.90;24.30;;;;;;;-128.00;-1.00;-1.00;18508;295;7504633;-30
2023/03/22 00:49:31;;;;;;;35.10;18.80;;;;;;;-128.00;-1.00;-1.00;18474;296;7506222;-30
2023/03/22 00:51:57;;;;;;;45.10;20.10;;;;;;;-128.00;-1.00;-1.00;18471;295;7504585;-30
2023/03/22 00:54:22;;;;;;;56.80;28.70;;;;;;;-128.00;-1.00;-1.00;18458;296;7506353;-35
2023/03/22 00:56:48;;;;;;;33.40;18.20;;;;;;;-128.00;-1.00;-1.00;18465;288;7504934;-34
2023/03/22 00:59:14;;;;;;;55.80;27.80;;;;;;;-128.00;-1.00;-1.00;18478;295;7506302;-33
2023/03/22 01:01:40;;;;;;;64.10;28.70;;;;;;;-128.00;-1.00;-1.00;18457;296;7505156;-34
2023/03/22 01:04:06;;;;;;;70.80;34.10;;;;;;;-128.00;-1.00;-1.00;18864;296;7504565;-31
2023/03/22 01:06:33;;;;;;;61.00;28.50;;;;;;;-128.00;-1.00;-1.00;18497;296;7504679;-34
2023/03/22 01:08:58;;;;;;;44.30;24.90;;;;;;;-128.00;-1.00;-1.00;18475;296;7505084;-34
2023/03/22 01:11:24;;;;;;;68.50;32.00;;;;;;;-128.00;-1.00;-1.00;18863;296;7504517;-34
2023/03/22 01:13:51;;;;;;;78.80;34.40;;;;;;;-128.00;-1.00;-1.00;18909;288;7504285;-34
2023/03/22 01:16:17;;;;;;;59.50;30.10;;;;;;;-128.00;-1.00;-1.00;18883;304;7505049;-31
2023/03/22 01:18:44;;;;;;;66.80;32.30;;;;;;;-128.00;-1.00;-1.00;18892;288;7504528;-31
2023/03/22 01:21:10;;;;;;;64.50;29.20;;;;;;;-128.00;-1.00;-1.00;18864;298;7506075;-36
2023/03/22 01:23:36;;;;;;;78.20;36.30;;;;;;;-128.00;-1.00;-1.00;18893;288;7505147;-34
2023/03/22 01:26:03;;;;;;;69.40;31.30;;;;;;;-128.00;-1.00;-1.00;18483;295;7504982;-30
2023/03/22 01:28:29;;;;;;;49.90;25.70;;;;;;;-128.00;-1.00;-1.00;18480;295;7506004;-34
2023/03/22 01:30:54;;;;;;;55.20;27.90;;;;;;;-128.00;-1.00;-1.00;18462;288;7504220;-30
2023/03/22 01:33:20;;;;;;;50.10;28.30;;;;;;;-128.00;-1.00;-1.00;18475;295;7505725;-34
2023/03/22 01:35:46;;;;;;;65.50;28.80;;;;;;;-128.00;-1.00;-1.00;18456;295;7504257;-34
2023/03/22 01:38:12;;;;;;;60.30;30.50;;;;;;;-128.00;-1.00;-1.00;18862;303;7505178;-30
2023/03/22 01:40:38;;;;;;;60.50;31.30;;;;;;;-128.00;-1.00;-1.00;18875;295;7504426;-32
2023/03/22 01:43:11;;;;;;;66.70;32.50;;;;;;;-128.00;-1.00;-1.00;18893;296;7505321;-32
2023/03/22 01:45:39;;;;;;;61.80;28.80;;;;;;;-128.00;-1.00;-1.00;18447;288;7504465;-34
2023/03/22 01:48:13;;;;;;;62.20;29.20;;;;;;;-128.00;-1.00;-1.00;18445;298;7506066;-35
2023/03/22 01:50:41;;;;;;;54.60;26.20;;;;;;;-128.00;-1.00;-1.00;18480;295;7504482;-36
2023/03/22 01:53:07;;;;;;;49.30;24.10;;;;;;;-128.00;-1.00;-1.00;18468;295;7506092;-31
2023/03/22 01:55:33;;;;;;;56.40;24.30;;;;;;;-128.00;-1.00;-1.00;18468;295;7504730;-31
2023/03/22 01:57:59;;;;;;;65.30;33.10;;;;;;;-128.00;-1.00;-1.00;18871;341;7504482;-35
2023/03/22 02:00:26;;;;;;;52.90;26.40;;;;;;;-128.00;-1.00;-1.00;18478;296;7505239;-32
2023/03/22 02:02:51;;;;;;;43.70;25.20;;;;;;;-128.00;-1.00;-1.00;18482;288;7504608;-34
2023/03/22 02:05:17;;;;;;;69.40;33.10;;;;;;;-128.00;-1.00;-1.00;18878;348;7504890;-31
2023/03/22 02:07:44;;;;;;;58.70;30.00;;;;;;;-128.00;-1.00;-1.00;18853;296;7504743;-35
2023/03/22 02:10:12;;;;;;;67.20;32.60;;;;;;;-128.00;-1.00;-1.00;18877;296;7504550;-31
2023/03/22 02:12:58;;;;;;;53.10;26.90;;;;;;;-128.00;-1.00;-1.00;18488;295;7505976;-31
2023/03/22 02:15:42;;;;;;;53.60;24.50;;;;;;;-128.00;-1.00;-1.00;18489;303;7505090;-34
2023/03/22 02:18:35;;;;;;;64.60;29.90;;;;;;;-128.00;-1.00;-1.00;18476;296;7504508;-31
2023/03/22 02:21:25;;;;;;;65.30;29.50;;;;;;;-128.00;-1.00;-1.00;18471;336;7504444;-31
2023/03/22 02:24:16;;;;;;;58.10;28.10;;;;;;;-128.00;-1.00;-1.00;18474;295;7504887;-35
2023/03/22 02:27:05;;;;;;;44.20;23.00;;;;;;;-128.00;-1.00;-1.00;18450;295;7506432;-33
2023/03/22 02:29:53;;;;;;;61.80;28.60;;;;;;;-128.00;-1.00;-1.00;18470;337;7504734;-34
2023/03/22 02:32:37;;;;;;;70.50;27.90;;;;;;;-128.00;-1.00;-1.00;18482;336;7505832;-35
2023/03/22 02:35:20;;;;;;;66.20;31.00;;;;;;;-128.00;-1.00;-1.00;18470;300;7504176;-35
2023/03/22 02:38:05;;;;;;;74.40;31.20;;;;;;;-128.00;-1.00;-1.00;18486;296;7506058;-31
2023/03/22 02:40:52;;;;;;;53.20;28.10;;;;;;;-128.00;-1.00;-1.00;18482;297;7504383;-35
2023/03/22 02:43:37;;;;;;;57.80;31.30;;;;;;;-128.00;-1.00;-1.00;18491;295;7506554;-31
2023/03/22 02:46:07;;;;;;;59.80;26.80;;;;;;;-128.00;-1.00;-1.00;18469;296;7504390;-31
2023/03/22 02:48:43;;;;;;;54.10;30.40;;;;;;;-128.00;-1.00;-1.00;18497;295;7504604;-31
2023/03/22 02:51:12;;;;;;;72.10;31.30;;;;;;;-128.00;-1.00;-1.00;18481;308;7505756;-35
2023/03/22 02:53:44;;;;;;;77.40;34.50;;;;;;;-128.00;-1.00;-1.00;18481;288;7504090;-31
2023/03/22 02:56:24;;;;;;;59.40;28.80;;;;;;;-128.00;-1.00;-1.00;18513;331;7504968;-32
2023/03/22 02:58:52;;;;;;;54.90;26.00;;;;;;;-128.00;-1.00;-1.00;18485;285;7505927;-35
2023/03/22 03:01:26;;;;;;;68.50;29.20;;;;;;;-128.00;-1.00;-1.00;18453;297;7504657;-35
2023/03/22 03:03:55;;;;;;;68.20;32.10;;;;;;;-128.00;-1.00;-1.00;18483;296;7504417;-34
2023/03/22 03:06:24;;;;;;;56.30;28.50;;;;;;;-128.00;-1.00;-1.00;18469;295;7505495;-31
2023/03/22 03:08:50;;;;;;;62.80;29.20;;;;;;;-128.00;-1.00;-1.00;18465;295;7504808;-34
2023/03/22 03:11:16;;;;;;;59.80;25.80;;;;;;;-128.00;-1.00;-1.00;18495;296;7504463;-31
2023/03/22 03:13:46;;;;;;;57.20;29.90;;;;;;;-128.00;-1.00;-1.00;18479;296;7506460;-33
2023/03/22 03:16:12;;;;;;;62.70;32.40;;;;;;;-128.00;-1.00;-1.00;18466;296;7505047;-33
2023/03/22 03:18:51;;;;;;;80.90;37.90;;;;;;;-128.00;-1.00;-1.00;18481;288;7504566;-30
2023/03/22 03:21:34;;;;;;;74.60;33.90;;;;;;;-128.00;-1.00;-1.00;18449;296;7504365;-31
2023/03/22 03:24:17;;;;;;;85.70;38.90;;;;;;;-128.00;-1.00;-1.00;18456;297;7506376;-31
2023/03/22 03:26:57;;;;;;;149.10;63.50;;;;;;;-128.00;-1.00;-1.00;18479;296;7504420;-30
2023/03/22 03:29:36;;;;;;;124.50;51.50;;;;;;;-128.00;-1.00;-1.00;18495;296;7504366;-31
2023/03/22 03:32:15;;;;;;;95.80;45.10;;;;;;;-128.00;-1.00;-1.00;18475;296;7504563;-34
2023/03/22 03:34:50;;;;;;;76.70;33.20;;;;;;;-128.00;-1.00;-1.00;18475;296;7506024;-31
2023/03/22 03:37:18;;;;;;;78.80;37.60;;;;;;;-128.00;-1.00;-1.00;18477;297;7504412;-35
2023/03/22 03:39:54;;;;;;;70.80;33.80;;;;;;;-128.00;-1.00;-1.00;18516;296;7505987;-35
2023/03/22 03:42:20;;;;;;;78.40;36.70;;;;;;;-128.00;-1.00;-1.00;18497;296;7504312;-31
2023/03/22 03:44:46;;;;;;;76.70;35.40;;;;;;;-128.00;-1.00;-1.00;18884;296;7504793;-31
2023/03/22 03:47:12;;;;;;;69.00;33.80;;;;;;;-128.00;-1.00;-1.00;18895;296;7504299;-34
2023/03/22 03:49:39;;;;;;;72.40;34.40;;;;;;;-128.00;-1.00;-1.00;18884;297;7504301;-34
2023/03/22 03:52:05;;;;;;;75.60;33.60;;;;;;;-128.00;-1.00;-1.00;18863;288;7504462;-34
2023/03/22 03:54:31;;;;;;;48.30;26.70;;;;;;;-128.00;-1.00;-1.00;18480;296;7506009;-36
2023/03/22 03:56:57;;;;;;;53.00;25.60;;;;;;;-128.00;-1.00;-1.00;18467;347;7506615;-33
2023/03/22 03:59:22;;;;;;;66.30;28.30;;;;;;;-128.00;-1.00;-1.00;18478;296;7505433;-30
2023/03/22 04:01:51;;;;;;;59.80;27.90;;;;;;;-128.00;-1.00;-1.00;18460;288;7506582;-34
2023/03/22 04:04:25;;;;;;;46.50;25.20;;;;;;;-128.00;-1.00;-1.00;18480;288;7505423;-34
2023/03/22 04:06:55;;;;;;;73.30;34.20;;;;;;;-128.00;-1.00;-1.00;18486;284;7504980;-34
2023/03/22 04:09:26;;;;;;;54.00;29.50;;;;;;;-128.00;-1.00;-1.00;18495;299;7506474;-31
2023/03/22 04:11:53;;;;;;;81.60;35.50;;;;;;;-128.00;-1.00;-1.00;18469;299;7504780;-34
2023/03/22 04:14:19;;;;;;;70.50;30.40;;;;;;;-128.00;-1.00;-1.00;18478;296;7506072;-35
2023/03/22 04:16:45;;;;;;;39.40;22.90;;;;;;;-128.00;-1.00;-1.00;18455;296;7505872;-35
2023/03/22 04:19:11;;;;;;;61.20;30.90;;;;;;;-128.00;-1.00;-1.00;18861;308;7504694;-34
2023/03/22 04:21:37;;;;;;;72.60;34.70;;;;;;;-128.00;-1.00;-1.00;18879;296;7504919;-34
2023/03/22 04:24:04;;;;;;;82.40;37.10;;;;;;;-128.00;-1.00;-1.00;18860;331;7505111;-33
2023/03/22 04:26:30;;;;;;;98.60;39.90;;;;;;;-128.00;-1.00;-1.00;18871;295;7505009;-34
2023/03/22 04:28:57;;;;;;;85.80;39.00;;;;;;;-128.00;-1.00;-1.00;18870;288;7505341;-30
2023/03/22 04:31:24;;;;;;;81.30;35.70;;;;;;;-128.00;-1.00;-1.00;18466;296;7506352;-33
2023/03/22 04:33:53;;;;;;;80.30;37.60;;;;;;;-128.00;-1.00;-1.00;18494;295;7505049;-31
2023/03/22 04:36:20;;;;;;;79.90;35.10;;;;;;;-128.00;-1.00;-1.00;18490;344;7505984;-31
2023/03/22 05:16:35;;;;;;;81.40;37.80;;;;;;;-101.08;19.20;19823.33;19572;295;8045706;-30
2023/03/22 05:19:01;;;;;;;67.10;31.00;;;;;;;-128.00;-1.00;-1.00;18158;297;7504615;-34
2023/03/22 05:21:28;;;;;;;83.10;35.00;;;;;;;-128.00;-1.00;-1.00;18477;295;7505753;-31
2023/03/22 05:23:55;;;;;;;82.60;35.00;;;;;;;-128.00;-1.00;-1.00;18493;295;7504490;-34
2023/03/22 05:26:23;;;;;;;75.40;34.20;;;;;;;-128.00;-1.00;-1.00;18486;287;7504919;-35
2023/03/22 05:28:50;;;;;;;54.90;29.20;;;;;;;-128.00;-1.00;-1.00;18450;320;7505135;-31
2023/03/22 05:31:16;;;;;;;72.70;32.40;;;;;;;-128.00;-1.00;-1.00;18458;295;7504615;-34
2023/03/22 05:33:42;;;;;;;82.90;35.80;;;;;;;-128.00;-1.00;-1.00;18497;288;7505032;-35
2023/03/22 05:36:10;;;;;;;47.40;26.00;;;;;;;-128.00;-1.00;-1.00;18461;295;7505355;-31
2023/03/22 05:38:36;;;;;;;85.70;37.40;;;;;;;-128.00;-1.00;-1.00;18483;288;7505485;-31
2023/03/22 05:41:02;;;;;;;49.80;26.30;;;;;;;-128.00;-1.00;-1.00;18468;287;7504584;-31
2023/03/22 05:43:27;;;;;;;75.00;36.10;;;;;;;-128.00;-1.00;-1.00;18419;296;7504793;-34
2023/03/22 05:45:54;;;;;;;81.90;36.70;;;;;;;-128.00;-1.00;-1.00;18894;295;7505351;-31
2023/03/22 05:48:20;;;;;;;83.80;39.00;;;;;;;-128.00;-1.00;-1.00;18880;288;7504340;-34
2023/03/22 05:50:46;;;;;;;84.00;36.30;;;;;;;-128.00;-1.00;-1.00;18878;288;7505232;-31
2023/03/22 05:53:12;;;;;;;89.80;42.50;;;;;;;-128.00;-1.00;-1.00;18860;331;7505092;-31
2023/03/22 05:55:39;;;;;;;77.90;39.40;;;;;;;-128.00;-1.00;-1.00;18896;287;7505018;-31
2023/03/22 05:58:06;;;;;;;74.00;36.30;;;;;;;-128.00;-1.00;-1.00;18865;296;7504768;-32
2023/03/22 06:00:32;;;;;;;77.80;37.20;;;;;;;-128.00;-1.00;-1.00;18494;288;7506059;-35
2023/03/22 06:03:02;;;;;;;72.90;35.00;;;;;;;-128.00;-1.00;-1.00;18484;288;7504442;-31
2023/03/22 06:05:29;;;;;;;66.90;31.00;;;;;;;-128.00;-1.00;-1.00;18495;295;7504214;-31
2023/03/22 06:07:55;;;;;;;61.10;28.70;;;;;;;-128.00;-1.00;-1.00;18448;295;7504993;-31
2023/03/22 06:10:22;;;;;;;66.50;32.50;;;;;;;-128.00;-1.00;-1.00;18459;288;7504305;-34
2023/03/22 06:12:49;;;;;;;75.50;35.10;;;;;;;-128.00;-1.00;-1.00;18453;295;7506182;-31
2023/03/22 06:15:15;;;;;;;64.60;30.90;;;;;;;-128.00;-1.00;-1.00;18472;295;7505826;-34
2023/03/22 06:17:41;;;;;;;83.50;34.50;;;;;;;-128.00;-1.00;-1.00;18474;337;7505916;-33
2023/03/22 06:20:09;;;;;;;57.90;30.10;;;;;;;-128.00;-1.00;-1.00;18482;296;7504740;-34
2023/03/22 06:22:35;;;;;;;60.80;29.30;;;;;;;-128.00;-1.00;-1.00;18465;296;7504802;-34
2023/03/22 06:25:00;;;;;;;68.30;34.60;;;;;;;-128.00;-1.00;-1.00;18490;296;7504936;-35
2023/03/22 06:27:26;;;;;;;83.60;39.10;;;;;;;-128.00;-1.00;-1.00;18499;296;7506540;-35
2023/03/22 06:29:53;;;;;;;62.00;31.50;;;;;;;-128.00;-1.00;-1.00;18498;296;7504484;-35
2023/03/22 06:32:22;;;;;;;78.00;38.60;;;;;;;-128.00;-1.00;-1.00;18479;288;7506032;-31
2023/03/22 06:34:49;;;;;;;72.20;34.40;;;;;;;-128.00;-1.00;-1.00;18459;296;7504590;-31
2023/03/22 06:37:15;;;;;;;91.80;37.90;;;;;;;-128.00;-1.00;-1.00;18504;288;7504567;-35
2023/03/22 06:39:41;;;;;;;78.00;40.10;;;;;;;-128.00;-1.00;-1.00;18468;296;7504612;-35
2023/03/22 06:42:07;;;;;;;63.60;33.50;;;;;;;-128.00;-1.00;-1.00;18487;288;7504466;-34
2023/03/22 06:44:33;;;;;;;75.50;34.10;;;;;;;-128.00;-1.00;-1.00;18456;296;7504896;-32
2023/03/22 06:46:58;;;;;;;75.20;38.30;;;;;;;-128.00;-1.00;-1.00;18478;288;7504617;-31
2023/03/22 06:49:25;;;;;;;78.40;36.30;;;;;;;-128.00;-1.00;-1.00;18476;296;7504206;-35
2023/03/22 06:51:51;;;;;;;87.70;37.40;;;;;;;-128.00;-1.00;-1.00;18471;296;7505071;-34
2023/03/22 06:54:17;;;;;;;79.30;40.10;;;;;;;-128.00;-1.00;-1.00;18489;295;7506492;-35
2023/03/22 06:56:43;;;;;;;73.50;36.80;;;;;;;-128.00;-1.00;-1.00;18886;298;7505264;-31
2023/03/22 06:59:09;;;;;;;79.10;39.00;;;;;;;-128.00;-1.00;-1.00;18875;296;7504484;-32
2023/03/22 07:01:35;;;;;;;75.20;39.10;;;;;;;-128.00;-1.00;-1.00;18870;296;7504385;-34
2023/03/22 07:04:02;;;;;;;72.90;38.50;;;;;;;-128.00;-1.00;-1.00;18877;288;7504321;-33
2023/03/22 07:06:29;;;;;;;70.20;36.60;;;;;;;-128.00;-1.00;-1.00;18885;288;7505376;-35
2023/03/22 07:08:55;;;;;;;70.90;34.60;;;;;;;-128.00;-1.00;-1.00;18493;296;7505124;-31
2023/03/22 07:11:21;;;;;;;75.00;35.00;;;;;;;-128.00;-1.00;-1.00;18474;295;7506261;-31
2023/03/22 07:13:46;;;;;;;65.80;35.40;;;;;;;-128.00;-1.00;-1.00;18460;348;7504718;-31
2023/03/22 07:16:12;;;;;;;78.40;36.80;;;;;;;-128.00;-1.00;-1.00;18488;307;7504867;-31
2023/03/22 07:18:38;;;;;;;75.10;37.90;;;;;;;-128.00;-1.00;-1.00;18877;288;7505340;-34
2023/03/22 07:21:05;;;;;;;73.00;37.30;;;;;;;-128.00;-1.00;-1.00;18498;288;7504637;-35
2023/03/22 07:23:30;;;;;;;62.20;33.90;;;;;;;-128.00;-1.00;-1.00;18478;308;7504125;-31
2023/03/22 07:25:58;;;;;;;72.00;37.50;;;;;;;-128.00;-1.00;-1.00;18473;320;7504365;-35
2023/03/22 07:28:23;;;;;;;64.80;32.60;;;;;;;-128.00;-1.00;-1.00;18463;296;7504671;-35
2023/03/22 07:30:57;;;;;;;63.10;35.00;;;;;;;-128.00;-1.00;-1.00;18446;296;7504999;-34
2023/03/22 07:33:23;;;;;;;77.10;36.40;;;;;;;-128.00;-1.00;-1.00;18488;295;7505147;-35
2023/03/22 07:35:49;;;;;;;65.60;33.10;;;;;;;-128.00;-1.00;-1.00;18497;288;7504715;-30
2023/03/22 07:38:15;;;;;;;64.90;33.90;;;;;;;-128.00;-1.00;-1.00;18496;295;7504842;-31
2023/03/22 07:40:40;;;;;;;70.10;39.20;;;;;;;-128.00;-1.00;-1.00;18480;295;7506231;-31
2023/03/22 07:43:06;;;;;;;66.50;35.10;;;;;;;-128.00;-1.00;-1.00;18869;288;7505033;-31
2023/03/22 07:45:33;;;;;;;69.90;34.20;;;;;;;-128.00;-1.00;-1.00;18886;288;7504936;-34
2023/03/22 07:47:59;;;;;;;68.00;35.70;;;;;;;-128.00;-1.00;-1.00;18855;288;7505521;-35
2023/03/22 07:50:25;;;;;;;70.40;36.40;;;;;;;-128.00;-1.00;-1.00;18867;296;7506045;-36
2023/03/22 07:52:51;;;;;;;63.80;34.40;;;;;;;-128.00;-1.00;-1.00;18880;296;7504739;-33
2023/03/22 07:55:18;;;;;;;54.40;29.80;;;;;;;-128.00;-1.00;-1.00;18447;296;7504587;-36
2023/03/22 07:57:43;;;;;;;54.00;32.40;;;;;;;-128.00;-1.00;-1.00;18456;296;7504588;-35
2023/03/22 08:00:10;;;;;;;55.70;28.90;;;;;;;-128.00;-1.00;-1.00;18465;296;7504644;-33
2023/03/22 08:02:36;;;;;;;53.40;29.00;;;;;;;-128.00;-1.00;-1.00;18495;288;7504771;-35
2023/03/22 08:05:02;;;;;;;52.80;28.60;;;;;;;-128.00;-1.00;-1.00;18495;347;7504325;-36
2023/03/22 08:07:29;;;;;;;51.50;28.60;;;;;;;-128.00;-1.00;-1.00;18456;296;7506024;-34
2023/03/22 08:09:55;;;;;;;49.70;28.20;;;;;;;-128.00;-1.00;-1.00;18462;296;7506424;-32
2023/03/22 08:12:20;;;;;;;49.90;29.20;;;;;;;-128.00;-1.00;-1.00;18500;295;7507144;-32
2023/03/22 08:14:49;;;;;;;51.90;29.70;;;;;;;-128.00;-1.00;-1.00;18876;295;7505206;-31
2023/03/22 08:17:16;;;;;;;52.50;25.80;;;;;;;-128.00;-1.00;-1.00;18464;296;7506926;-35
2023/03/22 08:19:42;;;;;;;47.10;25.30;;;;;;;-128.00;-1.00;-1.00;18471;296;7506392;-32
2023/03/22 08:22:10;;;;;;;44.20;27.60;;;;;;;-128.00;-1.00;-1.00;18477;297;7505272;-31
2023/03/22 08:24:36;;;;;;;45.50;28.00;;;;;;;-128.00;-1.00;-1.00;18476;288;7504593;-35
2023/03/22 08:27:02;;;;;;;42.40;26.20;;;;;;;-128.00;-1.00;-1.00;18483;348;7504740;-32
2023/03/22 08:29:28;;;;;;;44.90;26.30;;;;;;;-128.00;-1.00;-1.00;18466;296;7504741;-32
2023/03/22 08:31:54;;;;;;;44.00;24.80;;;;;;;-128.00;-1.00;-1.00;18479;348;7504416;-32
2023/03/22 08:34:20;;;;;;;44.00;23.70;;;;;;;-128.00;-1.00;-1.00;18476;288;7504325;-31
2023/03/22 08:36:46;;;;;;;41.90;26.30;;;;;;;-128.00;-1.00;-1.00;18459;296;7506406;-35
2023/03/22 08:39:12;;;;;;;40.60;25.50;;;;;;;-128.00;-1.00;-1.00;18503;288;7504435;-35
2023/03/22 08:41:38;;;;;;;35.90;23.10;;;;;;;-128.00;-1.00;-1.00;18452;297;7504540;-35
2023/03/22 08:44:04;;;;;;;37.40;22.00;;;;;;;-128.00;-1.00;-1.00;18469;296;7504528;-35
2023/03/22 08:46:30;;;;;;;39.90;23.20;;;;;;;-128.00;-1.00;-1.00;18478;311;7504206;-35
2023/03/22 08:48:59;;;;;;;38.80;25.20;;;;;;;-128.00;-1.00;-1.00;18484;296;7506401;-31
2023/03/22 08:51:25;;;;;;;36.70;21.30;;;;;;;-128.00;-1.00;-1.00;18456;304;7506270;-31
2023/03/22 08:53:50;;;;;;;32.70;21.70;;;;;;;-128.00;-1.00;-1.00;18472;348;7505793;-32
2023/03/22 08:56:17;;;;;;;38.10;20.80;;;;;;;-128.00;-1.00;-1.00;18473;304;7504390;-32
2023/03/22 08:58:45;;;;;;;36.80;20.20;;;;;;;-128.00;-1.00;-1.00;18492;296;7506090;-31
2023/03/22 09:01:12;;;;;;;36.10;21.50;;;;;;;-128.00;-1.00;-1.00;18479;304;7504608;-31
2023/03/22 09:03:38;;;;;;;38.50;20.20;;;;;;;-128.00;-1.00;-1.00;18476;296;7504641;-36
2023/03/22 09:06:05;;;;;;;31.10;20.10;;;;;;;-128.00;-1.00;-1.00;18486;348;7506061;-35
2023/03/22 09:08:32;;;;;;;34.00;19.90;;;;;;;-128.00;-1.00;-1.00;18456;296;7504582;-35
2023/03/22 09:10:58;;;;;;;38.40;20.10;;;;;;;-128.00;-1.00;-1.00;18480;296;7505485;-35
2023/03/22 09:13:24;;;;;;;32.30;21.70;;;;;;;-128.00;-1.00;-1.00;18480;288;7505581;-36
2023/03/22 09:15:51;;;;;;;30.40;19.90;;;;;;;-128.00;-1.00;-1.00;18461;296;7506375;-35
2023/03/22 09:18:17;;;;;;;35.60;21.10;;;;;;;-128.00;-1.00;-1.00;18440;337;7506352;-32
2023/03/22 09:20:44;;;;;;;31.80;18.30;;;;;;;-128.00;-1.00;-1.00;18516;296;7505904;-36
2023/03/22 09:23:11;;;;;;;37.90;19.60;;;;;;;-128.00;-1.00;-1.00;18470;308;7506561;-35
2023/03/22 09:25:37;;;;;;;29.30;18.20;;;;;;;-128.00;-1.00;-1.00;18461;296;7504447;-35
2023/03/22 09:28:03;;;;;;;32.20;19.60;;;;;;;-128.00;-1.00;-1.00;18898;296;7504315;-35
2023/03/22 09:30:30;;;;;;;26.30;15.10;;;;;;;-128.00;-1.00;-1.00;18873;296;7505871;-32
2023/03/22 09:32:56;;;;;;;21.90;15.30;;;;;;;-128.00;-1.00;-1.00;18871;349;7504415;-35
2023/03/22 09:35:22;;;;;;;18.70;14.70;;;;;;;-128.00;-1.00;-1.00;18910;296;7504379;-32
2023/03/22 09:37:51;;;;;;;27.80;16.40;;;;;;;-128.00;-1.00;-1.00;18915;296;7505125;-32
2023/03/22 09:40:18;;;;;;;22.00;13.70;;;;;;;-128.00;-1.00;-1.00;18470;297;7507032;-35
2023/03/22 09:42:45;;;;;;;21.50;13.90;;;;;;;-128.00;-1.00;-1.00;18480;337;7504740;-32
2023/03/22 09:45:15;;;;;;;17.20;8.30;;;;;;;-128.00;-1.00;-1.00;18458;297;7505883;-35
2023/03/22 09:47:50;;;;;;;20.00;12.40;;;;;;;-128.00;-1.00;-1.00;18464;296;7504572;-35
2023/03/22 09:50:19;;;;;;;18.40;13.40;;;;;;;-128.00;-1.00;-1.00;18450;348;7504352;-35
2023/03/22 09:52:45;;;;;;;20.60;12.60;;;;;;;-128.00;-1.00;-1.00;18496;288;7504795;-32
2023/03/22 09:55:17;;;;;;;17.50;13.60;;;;;;;-128.00;-1.00;-1.00;18478;296;7506813;-35
2023/03/22 09:57:43;;;;;;;18.30;12.70;;;;;;;-128.00;-1.00;-1.00;18480;295;7504494;-31
2023/03/22 10:00:19;;;;;;;21.40;13.60;;;;;;;-128.00;-1.00;-1.00;18865;320;7505016;-31
2023/03/22 10:02:54;;;;;;;22.30;12.70;;;;;;;-128.00;-1.00;-1.00;18470;348;7505952;-35
2023/03/22 10:05:24;;;;;;;19.20;12.80;;;;;;;-128.00;-1.00;-1.00;18458;298;7505120;-33
2023/03/22 10:07:55;;;;;;;15.80;12.50;;;;;;;-128.00;-1.00;-1.00;18474;297;7504331;-31
2023/03/22 10:10:21;;;;;;;12.40;10.00;;;;;;;-128.00;-1.00;-1.00;18444;299;7504803;-32
2023/03/22 10:13:04;;;;;;;17.00;11.50;;;;;;;-128.00;-1.00;-1.00;18477;296;7506716;-35
2023/03/22 10:15:34;;;;;;;22.60;13.00;;;;;;;-128.00;-1.00;-1.00;18475;296;7505408;-31
2023/03/22 10:18:02;;;;;;;15.80;10.10;;;;;;;-128.00;-1.00;-1.00;18463;296;7505391;-31
2023/03/22 10:20:36;;;;;;;11.80;7.30;;;;;;;-128.00;-1.00;-1.00;18452;296;7505473;-35
2023/03/22 10:23:03;;;;;;;10.90;9.50;;;;;;;-128.00;-1.00;-1.00;18460;296;7504685;-35
2023/03/22 10:25:35;;;;;;;8.00;5.40;;;;;;;-128.00;-1.00;-1.00;18462;288;7506325;-32
2023/03/22 10:28:01;;;;;;;8.90;6.80;;;;;;;-128.00;-1.00;-1.00;18473;296;7504460;-35
2023/03/22 10:30:29;;;;;;;10.90;6.70;;;;;;;-128.00;-1.00;-1.00;18488;296;7507017;-32
2023/03/22 10:33:00;;;;;;;10.90;8.10;;;;;;;-128.00;-1.00;-1.00;18494;296;7504773;-35
2023/03/22 10:35:26;;;;;;;7.10;5.40;;;;;;;-128.00;-1.00;-1.00;18504;348;7506416;-35
2023/03/22 10:37:52;;;;;;;8.90;6.40;;;;;;;-128.00;-1.00;-1.00;18480;296;7505084;-36
2023/03/22 10:40:20;;;;;;;9.70;7.10;;;;;;;-128.00;-1.00;-1.00;18463;296;7506389;-32
2023/03/22 10:42:51;;;;;;;11.10;8.40;;;;;;;-128.00;-1.00;-1.00;18463;296;7504472;-35
2023/03/22 10:45:17;;;;;;;8.30;7.30;;;;;;;-128.00;-1.00;-1.00;18447;288;7504306;-32
2023/03/22 10:47:46;;;;;;;14.40;8.50;;;;;;;-128.00;-1.00;-1.00;18481;296;7506635;-32
2023/03/22 10:50:17;;;;;;;13.00;8.90;;;;;;;-128.00;-1.00;-1.00;18474;288;7504922;-32
2023/03/22 10:52:50;;;;;;;10.70;9.00;;;;;;;-128.00;-1.00;-1.00;18506;295;7505638;-32
2023/03/22 10:55:16;;;;;;;12.50;9.00;;;;;;;-128.00;-1.00;-1.00;18483;295;7504275;-35
2023/03/22 10:57:49;;;;;;;13.00;9.40;;;;;;;-128.00;-1.00;-1.00;18484;332;7505006;-32
2023/03/22 11:00:16;;;;;;;10.30;7.90;;;;;;;-128.00;-1.00;-1.00;18461;296;7504249;-31
2023/03/22 11:02:47;;;;;;;17.60;11.30;;;;;;;-128.00;-1.00;-1.00;18487;296;7504460;-35
2023/03/22 11:45:49;;;;;;;9.30;5.40;;;;;;;-98.71;10.50;19789.96;98379;295;1544753;-36
2023/03/22 11:48:19;;;;;;;5.00;4.50;;;;;;;-128.00;-1.00;-1.00;97568;296;1004936;-34
2023/03/22 11:50:45;;;;;;;5.30;4.40;;;;;;;-128.00;-1.00;-1.00;97819;296;1003544;-33
2023/03/22 11:53:14;;;;;;;3.40;2.80;;;;;;;-128.00;-1.00;-1.00;97832;296;1003532;-32
2023/03/22 11:55:40;;;;;;;5.40;4.60;;;;;;;-128.00;-1.00;-1.00;97878;296;1005381;-44
2023/03/22 11:58:05;;;;;;;4.00;2.10;;;;;;;-128.00;-1.00;-1.00;97786;296;1004457;-35
2023/03/22 12:00:39;;;;;;;5.70;3.60;;;;;;;-128.00;-1.00;-1.00;97844;289;1003697;-32
2023/03/22 12:03:14;;;;;;;3.00;2.70;;;;;;;-128.00;-1.00;-1.00;97936;296;1003444;-31
2023/03/22 12:05:41;;;;;;;3.80;2.90;;;;;;;-128.00;-1.00;-1.00;97815;284;1003153;-31
2023/03/22 12:08:17;;;;;;;2.50;2.00;;;;;;;-128.00;-1.00;-1.00;97915;285;1003363;-31
2023/03/22 12:10:46;;;;;;;3.10;2.20;;;;;;;-128.00;-1.00;-1.00;93928;285;3002962;-35
2023/03/22 12:13:24;;;;;;;6.40;3.40;;;;;;;-128.00;-1.00;-1.00;53371;296;7504608;-36
2023/03/22 12:15:53;;;;;;;4.00;3.30;;;;;;;-128.00;-1.00;-1.00;93479;297;4236338;-32
2023/03/22 12:18:28;;;;;;;4.70;4.00;;;;;;;-128.00;-1.00;-1.00;83628;296;7504269;-34
2023/03/22 12:20:58;;;;;;;2.80;2.50;;;;;;;-128.00;-1.00;-1.00;88964;296;4502052;-35
2023/03/22 12:23:27;;;;;;;3.60;3.20;;;;;;;-128.00;-1.00;-1.00;40425;285;7503699;-31
2023/03/22 12:26:19;;;;;;;3.80;2.60;;;;;;;-128.00;-1.00;-1.00;44874;297;7504432;-33
2023/03/22 12:28:55;;;;;;;3.20;2.90;;;;;;;-128.00;-1.00;-1.00;21692;289;7504076;-33
2023/03/22 12:31:23;;;;;;;3.70;3.10;;;;;;;-128.00;-1.00;-1.00;18514;289;7504664;-36
2023/03/22 12:33:53;;;;;;;4.40;4.00;;;;;;;-128.00;-1.00;-1.00;18865;348;7504765;-36
2023/03/22 12:36:32;;;;;;;3.10;2.80;;;;;;;-128.00;-1.00;-1.00;18830;296;7504590;-36
2023/03/22 12:38:59;;;;;;;4.00;2.50;;;;;;;-128.00;-1.00;-1.00;18479;296;7504561;-36
2023/03/22 12:41:38;;;;;;;3.50;3.20;;;;;;;-128.00;-1.00;-1.00;18458;296;7504725;-32
2023/03/22 12:44:16;;;;;;;1.30;1.20;;;;;;;-128.00;-1.00;-1.00;19271;296;7506021;-32